createdAt,value
2018-05-26T00:00:52.614Z,99.90
2018-05-26T00:03:27.340Z,99.90
2018-05-26T00:06:02.695Z,99.90
2018-05-26T00:08:37.230Z,99.90
2018-05-26T00:11:12.557Z,99.90
2018-05-26T00:13:47.910Z,99.90
2018-05-26T00:16:22.921Z,99.90
2018-05-26T00:18:58.257Z,99.90
2018-05-26T00:21:33.273Z,99.90
2018-05-26T00:24:08.344Z,99.90
2018-05-26T00:26:43.896Z,99.90
2018-05-26T00:29:20.352Z,99.90
2018-05-26T00:31:55.275Z,99.90
2018-05-26T00:34:29.518Z,99.90
2018-05-26T00:37:04.617Z,99.90
2018-05-26T00:39:40.184Z,99.90
2018-05-26T00:42:15.028Z,99.90
2018-05-26T00:44:50.536Z,99.90
2018-05-26T00:47:25.378Z,99.90
2018-05-26T00:50:01.615Z,99.90
2018-05-26T00:52:36.658Z,99.90
2018-05-26T00:55:13.140Z,99.90
2018-05-26T00:57:48.394Z,99.90
2018-05-26T01:00:23.835Z,99.90
2018-05-26T01:02:59.379Z,99.90
2018-05-26T01:05:35.307Z,99.90
2018-05-26T01:08:09.940Z,99.90
2018-05-26T01:10:44.866Z,99.90
2018-05-26T01:13:19.363Z,99.90
2018-05-26T01:15:55.600Z,99.90
2018-05-26T01:18:30.596Z,99.90
2018-05-26T01:21:06.127Z,99.90
2018-05-26T01:23:41.165Z,99.90
2018-05-26T01:26:15.801Z,99.90
2018-05-26T01:28:50.407Z,99.90
2018-05-26T01:31:24.104Z,99.90
2018-05-26T01:33:58.235Z,99.90
2018-05-26T01:36:32.843Z,99.90
2018-05-26T01:39:06.757Z,99.90
2018-05-26T01:41:41.186Z,99.90
2018-05-26T01:44:15.694Z,99.90
2018-05-26T01:46:51.779Z,99.90
2018-05-26T01:49:25.650Z,99.90
2018-05-26T01:52:00.491Z,99.90
2018-05-26T01:54:35.530Z,99.90
2018-05-26T01:57:11.473Z,99.90
2018-05-26T01:59:45.486Z,99.90
2018-05-26T02:02:19.492Z,99.90
2018-05-26T02:04:54.265Z,99.90
2018-05-26T02:07:28.742Z,99.90
2018-05-26T02:10:03.887Z,99.90
2018-05-26T02:12:39.414Z,99.90
2018-05-26T02:15:14.152Z,99.90
2018-05-26T02:17:48.476Z,99.90
2018-05-26T02:20:22.802Z,99.90
2018-05-26T02:22:57.011Z,99.90
2018-05-26T02:25:32.350Z,99.90
2018-05-26T02:28:06.931Z,99.90
2018-05-26T02:30:42.623Z,99.90
2018-05-26T02:33:16.524Z,99.90
2018-05-26T02:35:51.258Z,99.90
2018-05-26T02:38:25.555Z,99.90
2018-05-26T02:41:00.384Z,99.90
2018-05-26T02:43:35.499Z,99.90
2018-05-26T02:46:10.162Z,99.90
2018-05-26T02:48:45.700Z,99.90
2018-05-26T02:51:21.070Z,99.90
2018-05-26T02:53:55.964Z,99.90
2018-05-26T02:56:30.917Z,99.90
2018-05-26T02:59:06.236Z,99.90
2018-05-26T03:01:40.566Z,99.90
2018-05-26T03:04:21.507Z,99.90
2018-05-26T03:07:04.114Z,99.90
2018-05-26T03:09:44.487Z,99.90
2018-05-26T03:12:23.943Z,99.90
2018-05-26T03:14:58.346Z,99.90
2018-05-26T03:17:34.306Z,99.90
2018-05-26T03:20:08.033Z,99.90
2018-05-26T03:22:42.989Z,99.90
2018-05-26T03:25:17.812Z,99.90
2018-05-26T03:27:52.929Z,99.90
2018-05-26T03:30:27.534Z,99.90
2018-05-26T03:33:03.073Z,99.90
2018-05-26T03:35:38.741Z,99.90
2018-05-26T03:38:13.026Z,99.90
2018-05-26T03:40:48.263Z,99.90
2018-05-26T03:43:23.301Z,99.90
2018-05-26T03:45:58.233Z,99.90
2018-05-26T03:48:33.186Z,99.90
2018-05-26T03:51:10.262Z,99.90
2018-05-26T03:53:45.176Z,99.90
2018-05-26T03:56:32.203Z,99.90
2018-05-26T03:59:17.074Z,99.90
2018-05-26T04:01:51.192Z,99.90
2018-05-26T04:04:25.912Z,99.90
2018-05-26T04:07:00.636Z,99.90
2018-05-26T04:09:34.946Z,99.90
2018-05-26T04:12:09.678Z,99.90
2018-05-26T04:14:45.095Z,99.90
2018-05-26T04:17:20.264Z,99.90
2018-05-26T04:19:54.267Z,99.90
2018-05-26T04:22:28.160Z,99.90
2018-05-26T04:25:02.288Z,99.90
2018-05-26T04:27:37.700Z,99.90
2018-05-26T04:30:13.790Z,99.90
2018-05-26T04:32:48.393Z,99.90
2018-05-26T04:35:24.365Z,99.90
2018-05-26T04:37:58.497Z,99.90
2018-05-26T04:40:34.540Z,99.90
2018-05-26T04:43:08.797Z,99.90
2018-05-26T04:45:42.631Z,99.90
2018-05-26T04:48:17.260Z,99.90
2018-05-26T04:50:52.089Z,99.90
2018-05-26T04:53:26.787Z,99.90
2018-05-26T04:56:01.160Z,99.90
2018-05-26T04:58:35.052Z,99.90
2018-05-26T05:01:15.907Z,99.90
2018-05-26T05:03:49.720Z,99.90
2018-05-26T05:06:25.259Z,99.90
2018-05-26T05:08:59.586Z,99.90
2018-05-26T05:11:34.830Z,99.90
2018-05-26T05:14:08.738Z,99.90
2018-05-26T05:16:44.702Z,99.90
2018-05-26T05:19:22.167Z,99.90
2018-05-26T05:21:57.307Z,99.90
2018-05-26T05:24:33.660Z,99.90
2018-05-26T05:27:09.721Z,99.90
2018-05-26T05:29:44.442Z,99.90
2018-05-26T05:32:19.675Z,99.90
2018-05-26T05:34:54.712Z,99.90
2018-05-26T05:37:30.011Z,99.90
2018-05-26T05:40:04.864Z,99.90
2018-05-26T05:42:39.637Z,99.90
2018-05-26T05:45:13.518Z,99.90
2018-05-26T05:47:47.326Z,99.90
2018-05-26T05:50:22.262Z,99.90
2018-05-26T05:52:56.719Z,99.90
2018-05-26T05:55:32.439Z,99.90
2018-05-26T05:58:06.236Z,99.90
2018-05-26T06:00:41.804Z,99.90
2018-05-26T06:03:15.883Z,99.90
2018-05-26T06:05:50.508Z,99.90
2018-05-26T06:08:24.635Z,99.90
2018-05-26T06:10:59.215Z,99.90
2018-05-26T06:13:33.768Z,99.90
2018-05-26T06:16:08.495Z,99.90
2018-05-26T06:18:43.834Z,99.90
2018-05-26T06:21:19.371Z,99.90
2018-05-26T06:23:53.964Z,99.90
2018-05-26T06:26:28.560Z,99.90
2018-05-26T06:29:04.372Z,99.90
2018-05-26T06:31:43.227Z,99.90
2018-05-26T06:34:19.667Z,99.90
2018-05-26T06:36:54.186Z,99.90
2018-05-26T06:39:28.216Z,99.90
2018-05-26T06:42:03.020Z,99.90
2018-05-26T06:44:37.442Z,99.90
2018-05-26T06:47:11.772Z,99.90
2018-05-26T06:49:46.091Z,99.90
2018-05-26T06:52:23.254Z,99.90
2018-05-26T06:54:59.497Z,99.90
2018-05-26T06:57:35.595Z,99.90
2018-05-26T07:00:14.749Z,99.90
2018-05-26T07:02:51.136Z,99.90
2018-05-26T07:05:25.621Z,99.90
2018-05-26T07:08:03.382Z,99.90
2018-05-26T07:10:41.371Z,99.90
2018-05-26T07:13:18.110Z,99.90
2018-05-26T07:15:52.990Z,99.90
2018-05-26T07:18:28.320Z,99.90
2018-05-26T07:21:02.937Z,99.90
2018-05-26T07:23:37.796Z,99.90
2018-05-26T07:26:12.730Z,99.90
2018-05-26T07:28:47.963Z,99.90
2018-05-26T07:31:25.171Z,99.90
2018-05-26T07:34:00.063Z,99.90
2018-05-26T07:36:35.502Z,99.90
2018-05-26T07:39:10.652Z,99.90
2018-05-26T07:41:44.460Z,99.90
2018-05-26T07:44:19.172Z,99.90
2018-05-26T07:47:01.594Z,99.90
2018-05-26T07:49:36.810Z,99.90
2018-05-26T07:52:13.300Z,99.90
2018-05-26T07:54:50.747Z,99.90
2018-05-26T07:57:24.479Z,99.90
2018-05-26T08:00:00.611Z,99.90
2018-05-26T08:02:35.561Z,99.90
2018-05-26T08:05:10.925Z,99.90
2018-05-26T08:07:45.579Z,99.90
2018-05-26T08:10:20.055Z,99.90
2018-05-26T08:12:54.486Z,99.90
2018-05-26T08:15:28.926Z,99.90
2018-05-26T08:18:02.923Z,99.90
2018-05-26T08:20:36.929Z,99.90
2018-05-26T08:23:11.215Z,99.90
2018-05-26T08:25:45.758Z,99.90
2018-05-26T08:28:22.343Z,99.90
2018-05-26T08:30:56.511Z,99.90
2018-05-26T08:33:31.540Z,99.90
2018-05-26T08:36:05.910Z,99.90
2018-05-26T08:38:40.402Z,99.90
2018-05-26T08:41:15.077Z,99.90
2018-05-26T08:43:49.457Z,99.90
2018-05-26T08:46:23.962Z,99.90
2018-05-26T08:48:59.128Z,99.90
2018-05-26T08:51:35.163Z,99.90
2018-05-26T08:54:09.493Z,99.90
2018-05-26T08:56:44.414Z,99.90
2018-05-26T08:59:18.439Z,99.90
2018-05-26T09:01:53.056Z,99.90
2018-05-26T09:04:26.755Z,99.90
2018-05-26T09:07:02.724Z,99.90
2018-05-26T09:09:39.391Z,99.90
2018-05-26T09:12:13.743Z,99.90
2018-05-26T09:14:48.315Z,99.90
2018-05-26T09:17:23.037Z,99.90
2018-05-26T09:19:57.597Z,99.90
2018-05-26T09:22:32.124Z,99.90
2018-05-26T09:25:06.277Z,99.90
2018-05-26T09:27:41.660Z,99.90
2018-05-26T09:30:15.476Z,99.90
2018-05-26T09:32:51.006Z,99.90
2018-05-26T09:35:25.509Z,99.90
2018-05-26T09:38:00.505Z,99.90
2018-05-26T09:40:35.279Z,99.90
2018-05-26T09:43:09.798Z,99.90
2018-05-26T09:45:43.899Z,99.90
2018-05-26T09:48:17.597Z,99.90
2018-05-26T09:50:54.271Z,99.90
2018-05-26T09:53:28.798Z,99.90
2018-05-26T09:56:03.436Z,99.90
2018-05-26T09:58:37.750Z,99.90
2018-05-26T10:01:12.555Z,99.90
2018-05-26T10:03:47.079Z,99.90
2018-05-26T10:06:22.133Z,99.90
2018-05-26T10:08:56.531Z,99.90
2018-05-26T10:11:32.185Z,99.90
2018-05-26T10:14:06.228Z,99.90
2018-05-26T10:16:41.838Z,99.90
2018-05-26T10:19:16.058Z,99.90
2018-05-26T10:21:50.680Z,99.90
2018-05-26T10:24:25.193Z,99.90
2018-05-26T10:27:00.248Z,99.90
2018-05-26T10:29:34.647Z,99.90
2018-05-26T10:32:09.703Z,99.90
2018-05-26T10:34:43.390Z,99.90
2018-05-26T10:37:17.400Z,99.90
2018-05-26T10:39:53.236Z,99.90
2018-05-26T10:42:28.567Z,99.90
2018-05-26T10:45:03.203Z,99.90
2018-05-26T10:47:36.910Z,99.90
2018-05-26T10:50:12.171Z,99.90
2018-05-26T10:52:46.893Z,99.90
2018-05-26T10:55:20.863Z,99.90
2018-05-26T10:57:55.325Z,99.90
2018-05-26T11:00:29.933Z,99.90
2018-05-26T11:03:04.747Z,99.90
2018-05-26T11:05:39.182Z,99.90
2018-05-26T11:08:13.034Z,99.90
2018-05-26T11:10:47.095Z,99.90
2018-05-26T11:13:21.898Z,97.70
2018-05-26T11:15:55.728Z,97.70
2018-05-26T11:18:30.335Z,96.80
2018-05-26T11:21:04.534Z,96.80
2018-05-26T11:23:39.415Z,96.10
2018-05-26T11:26:14.469Z,95.40
2018-05-26T11:28:49.052Z,95.20
2018-05-26T11:31:23.234Z,95.20
2018-05-26T11:33:57.875Z,93.10
2018-05-26T11:36:32.110Z,93.20
2018-05-26T11:39:07.868Z,94.30
2018-05-26T11:41:41.907Z,94.20
2018-05-26T11:44:16.132Z,95.30
2018-05-26T11:46:50.141Z,92.10
2018-05-26T11:49:24.981Z,92.20
2018-05-26T11:51:59.632Z,93.80
2018-05-26T11:54:34.552Z,90.70
2018-05-26T11:57:08.500Z,90.90
2018-05-26T11:59:43.288Z,92.20
2018-05-26T12:02:18.034Z,88.80
2018-05-26T12:04:51.782Z,88.70
2018-05-26T12:07:26.349Z,89.00
2018-05-26T12:10:01.883Z,92.50
2018-05-26T12:12:36.300Z,87.60
2018-05-26T12:15:11.551Z,87.20
2018-05-26T12:17:45.314Z,87.10
2018-05-26T12:20:22.956Z,87.20
2018-05-26T12:22:56.760Z,87.00
2018-05-26T12:25:30.684Z,74.10
2018-05-26T12:28:05.326Z,77.60
2018-05-26T12:30:41.118Z,70.80
2018-05-26T12:33:16.427Z,73.40
2018-05-26T12:44:53.226Z,66.90
2018-05-26T12:47:27.094Z,67.10
2018-05-26T12:50:01.612Z,66.90
2018-05-26T12:52:36.135Z,59.80
2018-05-26T12:58:12.206Z,58.60
2018-05-26T13:00:46.624Z,62.40
2018-05-26T13:03:21.587Z,51.10
2018-05-26T13:05:55.970Z,54.20
2018-05-26T13:08:31.117Z,54.60
2018-05-26T13:11:05.315Z,54.70
2018-05-26T13:13:40.895Z,48.30
2018-05-26T13:16:15.414Z,51.40
2018-05-26T13:18:49.464Z,51.80
2018-05-26T13:21:24.432Z,52.30
2018-05-26T13:23:59.046Z,52.30
2018-05-26T13:26:34.279Z,48.70
2018-05-26T13:29:09.626Z,48.60
2018-05-26T13:31:43.660Z,48.60
2018-05-26T13:34:17.642Z,49.00
2018-05-26T13:36:52.482Z,47.00
2018-05-26T13:39:27.708Z,44.80
2018-05-26T13:42:02.968Z,44.80
2018-05-26T13:44:37.578Z,43.50
2018-05-26T13:47:11.778Z,43.30
2018-05-26T13:49:45.702Z,44.10
2018-05-26T14:25:26.969Z,37.00
2018-05-26T14:28:00.695Z,37.30
2018-05-26T14:30:34.408Z,37.40
2018-05-26T14:33:10.822Z,36.30
2018-05-26T14:35:45.435Z,34.40
2018-05-26T14:38:20.283Z,36.80
2018-05-26T14:40:54.998Z,36.90
2018-05-26T14:43:29.939Z,37.60
2018-05-26T14:46:03.930Z,37.40
2018-05-26T14:48:38.981Z,36.70
2018-05-26T14:51:12.803Z,36.60
2018-05-26T14:53:47.876Z,36.10
2018-05-26T14:56:22.432Z,36.10
2018-05-26T14:58:57.150Z,35.40
2018-05-26T15:01:31.875Z,36.00
2018-05-26T15:04:05.573Z,35.90
2018-05-26T15:06:40.404Z,38.60
2018-05-26T15:09:14.406Z,38.50
2018-05-26T15:11:48.230Z,38.50
2018-05-26T15:14:22.436Z,37.70
2018-05-26T15:16:56.950Z,43.90
2018-05-26T15:19:31.234Z,45.70
2018-05-26T15:22:05.690Z,52.10
2018-05-26T15:24:40.099Z,52.50
2018-05-26T15:27:14.419Z,52.50
2018-05-26T15:29:48.952Z,56.00
2018-05-26T15:32:23.274Z,58.50
2018-05-26T15:34:59.726Z,59.90
2018-05-26T15:37:34.556Z,58.90
2018-05-26T15:40:08.666Z,58.90
2018-05-26T15:42:43.209Z,66.10
2018-05-26T15:45:17.702Z,63.60
2018-05-26T15:47:51.515Z,63.60
2018-05-26T15:50:25.518Z,61.80
2018-05-26T15:53:00.802Z,71.60
2018-05-26T15:55:34.453Z,71.60
2018-05-26T15:58:09.078Z,70.90
2018-05-26T16:00:43.923Z,70.90
2018-05-26T16:03:17.593Z,68.60
2018-05-26T16:05:53.579Z,72.60
2018-05-26T16:08:27.777Z,72.70
2018-05-26T16:11:01.782Z,69.60
2018-05-26T16:13:36.530Z,80.80
2018-05-26T16:16:11.767Z,77.70
2018-05-26T16:18:45.561Z,77.60
2018-05-26T16:21:21.531Z,80.60
2018-05-26T16:23:55.419Z,80.50
2018-05-26T16:26:29.119Z,86.80
2018-05-26T16:29:04.354Z,85.20
2018-05-26T16:31:38.580Z,85.10
2018-05-26T16:34:13.190Z,74.50
2018-05-26T16:36:48.122Z,74.50
2018-05-26T16:39:22.446Z,83.80
2018-05-26T16:41:56.550Z,78.40
2018-05-26T16:44:31.487Z,86.00
2018-05-26T16:47:05.693Z,86.00
2018-05-26T16:49:39.729Z,89.00
2018-05-26T16:52:14.751Z,92.00
2018-05-26T16:54:48.653Z,92.00
2018-05-26T16:57:23.292Z,89.90
2018-05-26T16:59:57.986Z,89.10
2018-05-26T17:02:32.774Z,90.00
2018-05-26T17:05:06.286Z,91.20
2018-05-26T17:07:40.340Z,90.20
2018-05-26T17:10:14.470Z,88.80
2018-05-26T17:12:52.034Z,90.50
2018-05-26T17:15:27.195Z,86.60
2018-05-26T17:18:03.015Z,84.40
2018-05-26T17:20:37.405Z,82.00
2018-05-26T17:23:11.795Z,84.40
2018-05-26T17:25:45.310Z,84.70
2018-05-26T17:28:18.792Z,80.70
2018-05-26T17:30:52.345Z,82.70
2018-05-26T17:33:27.430Z,77.90
2018-05-26T17:36:01.685Z,79.80
2018-05-26T17:38:35.935Z,81.00
2018-05-26T17:41:10.319Z,85.30
2018-05-26T17:43:44.722Z,83.40
2018-05-26T17:46:19.061Z,84.30
2018-05-26T17:48:52.773Z,84.30
2018-05-26T17:51:26.256Z,86.50
2018-05-26T17:54:00.541Z,88.10
2018-05-26T17:56:34.936Z,93.00
2018-05-26T17:59:08.437Z,93.00
2018-05-26T18:01:42.695Z,94.80
2018-05-26T18:04:17.093Z,95.80
2018-05-26T18:06:51.377Z,96.00
2018-05-26T18:09:25.639Z,95.60
2018-05-26T18:12:00.005Z,97.50
2018-05-26T18:14:34.264Z,99.70
2018-05-26T18:17:10.698Z,98.90
2018-05-26T18:19:45.178Z,99.90
2018-05-26T18:22:20.005Z,99.90
2018-05-26T18:24:55.154Z,99.90
2018-05-26T18:27:30.493Z,99.90
2018-05-26T18:30:04.600Z,99.90
2018-05-26T18:32:40.378Z,99.90
2018-05-26T18:35:14.460Z,99.90
2018-05-26T18:37:48.671Z,99.90
2018-05-26T18:40:23.882Z,99.90
2018-05-26T18:42:57.555Z,99.90
2018-05-26T18:45:31.620Z,99.90
2018-05-26T18:48:05.229Z,99.90
2018-05-26T18:50:40.059Z,99.90
2018-05-26T18:53:14.673Z,99.90
2018-05-26T18:55:49.914Z,99.90
2018-05-26T18:58:25.358Z,99.90
2018-05-26T19:01:02.339Z,99.90
2018-05-26T19:03:36.775Z,99.90
2018-05-26T19:06:11.338Z,99.90
2018-05-26T19:08:45.799Z,99.90
2018-05-26T19:11:20.246Z,99.90
2018-05-26T19:13:54.319Z,99.90
2018-05-26T19:16:28.029Z,99.90
2018-05-26T19:19:02.656Z,99.90
2018-05-26T19:21:36.557Z,99.90
2018-05-26T19:24:12.001Z,99.90
2018-05-26T19:26:45.659Z,99.90
2018-05-26T19:29:21.469Z,99.90
2018-05-26T19:31:55.259Z,99.90
2018-05-26T19:34:30.172Z,99.90
2018-05-26T19:37:04.249Z,99.90
2018-05-26T19:39:39.122Z,99.90
2018-05-26T19:42:12.728Z,99.90
2018-05-26T19:44:47.252Z,99.90
2018-05-26T19:47:21.885Z,99.90
2018-05-26T19:49:56.800Z,99.90
2018-05-26T19:52:31.960Z,99.90
2018-05-26T19:55:05.846Z,99.90
2018-05-26T19:57:40.206Z,99.90
2018-05-26T20:00:14.443Z,99.90
2018-05-26T20:02:48.379Z,99.90
2018-05-26T20:05:23.116Z,99.90
2018-05-26T20:07:57.644Z,99.90
2018-05-26T20:10:31.431Z,99.90
2018-05-26T20:13:05.038Z,99.90
2018-05-26T20:15:38.792Z,99.90
2018-05-26T20:18:12.401Z,99.90
2018-05-26T20:20:47.071Z,99.90
2018-05-26T20:23:20.681Z,99.90
2018-05-26T20:25:54.268Z,99.90
2018-05-26T20:28:28.689Z,99.90
2018-05-26T20:31:02.999Z,99.90
2018-05-26T20:33:36.621Z,99.90
2018-05-26T20:36:10.355Z,99.90
2018-05-26T20:38:45.222Z,99.90
2018-05-26T20:41:19.252Z,99.90
2018-05-26T20:43:54.068Z,99.90
2018-05-26T20:46:28.702Z,99.90
2018-05-26T20:49:03.380Z,99.90
2018-05-26T20:51:38.164Z,99.90
2018-05-26T20:54:14.603Z,99.90
2018-05-26T20:56:50.414Z,99.90
2018-05-26T20:59:24.197Z,99.90
2018-05-26T21:01:58.803Z,99.90
2018-05-26T21:04:33.603Z,99.90
2018-05-26T21:07:07.852Z,99.90
2018-05-26T21:09:42.755Z,99.90
2018-05-26T21:12:17.275Z,99.90
2018-05-26T21:14:51.768Z,99.90
2018-05-26T21:17:25.813Z,99.90
2018-05-26T21:20:00.764Z,99.90
2018-05-26T21:22:34.550Z,99.90
2018-05-26T21:25:11.629Z,99.90
2018-05-26T21:27:46.019Z,99.90
2018-05-26T21:30:21.499Z,99.90
2018-05-26T21:32:55.922Z,99.90
2018-05-26T21:35:29.696Z,99.90
2018-05-26T21:38:04.261Z,99.90
2018-05-26T21:40:38.728Z,99.90
2018-05-26T21:43:12.980Z,99.90
2018-05-26T21:45:48.032Z,99.90
2018-05-26T21:48:22.580Z,99.90
2018-05-26T21:50:56.745Z,99.90
2018-05-26T21:53:31.251Z,99.90
2018-05-26T21:56:05.209Z,99.90
2018-05-26T21:58:40.522Z,99.90
2018-05-26T22:01:14.407Z,99.90
2018-05-26T22:03:50.398Z,99.90
2018-05-26T22:06:24.996Z,99.90
2018-05-26T22:08:59.932Z,99.90
2018-05-26T22:11:34.092Z,99.90
2018-05-26T22:14:09.079Z,99.90
2018-05-26T22:16:43.486Z,99.90
2018-05-26T22:19:19.540Z,99.90
2018-05-26T22:21:53.784Z,99.90
2018-05-26T22:24:28.492Z,99.90
2018-05-26T22:27:03.439Z,99.90
2018-05-26T22:29:37.436Z,99.90
2018-05-26T22:32:11.881Z,99.90
2018-05-26T22:34:46.384Z,99.90
2018-05-26T22:37:21.611Z,99.90
2018-05-26T22:39:55.574Z,99.90
2018-05-26T22:42:30.709Z,99.90
2018-05-26T22:45:05.260Z,99.90
2018-05-26T22:47:39.284Z,99.90
2018-05-26T22:50:14.298Z,99.90
2018-05-26T22:52:48.934Z,99.90
2018-05-26T22:55:23.211Z,99.90
2018-05-26T22:57:57.488Z,99.90
2018-05-26T23:00:32.401Z,99.90
2018-05-26T23:03:07.483Z,99.90
2018-05-26T23:05:42.238Z,99.90
2018-05-26T23:08:16.371Z,99.90
2018-05-26T23:10:51.723Z,99.90
2018-05-26T23:13:26.331Z,99.90
2018-05-26T23:16:01.531Z,99.90
2018-05-26T23:18:35.898Z,99.90
2018-05-26T23:21:11.380Z,99.90
2018-05-26T23:23:46.206Z,99.90
2018-05-26T23:26:20.877Z,99.90
2018-05-26T23:28:55.527Z,99.90
2018-05-26T23:31:29.371Z,99.90
2018-05-26T23:34:04.314Z,99.90
2018-05-26T23:36:38.206Z,99.90
2018-05-26T23:39:12.780Z,99.90
2018-05-26T23:41:46.344Z,99.90
2018-05-26T23:44:21.984Z,99.90
2018-05-26T23:46:55.620Z,99.90
2018-05-26T23:49:30.554Z,99.90
2018-05-26T23:52:04.990Z,99.90
2018-05-26T23:54:38.789Z,99.90
2018-05-26T23:57:13.398Z,99.90
2018-05-26T23:59:47.312Z,99.90
